Time;durP1;ratioP1;P1;durP2;ratioP2;P2;SDS_P1;SDS_P2;PMS_P1;PMS_P2;Temp;Humidity;BMP_temperature;BMP_pressure;BME280_temperature;BME280_humidity;BME280_pressure;Samples;Min_cycle;Max_cycle;Signal;HPM_P1;HPM_P2
2023/03/26 00:00:32;;;;;;;16.42;12.55;;;;;;;;;;2046681;29;20074;-90
2023/03/26 00:01:35;;;;;;;20.95;13.88;;;;;;;;;;2046586;29;20027;-89
2023/03/26 00:02:38;;;;;;;16.23;12.57;;;;;;;;;;2037935;29;20024;-90
2023/03/26 00:03:39;;;;;;;19.67;13.13;;;;;;;;;;2038157;29;20526;-89
2023/03/26 00:04:41;;;;;;;17.48;12.80;;;;;;;;;;2045752;29;20027;-89
2023/03/26 00:05:42;;;;;;;18.27;13.10;;;;;;;;;;2038336;29;20046;-90
2023/03/26 00:06:43;;;;;;;21.52;13.43;;;;;;;;;;2030212;29;20056;-89
2023/03/26 00:07:43;;;;;;;18.75;13.82;;;;;;;;;;2030018;29;20392;-89
2023/03/26 00:08:44;;;;;;;18.27;13.50;;;;;;;;;;2037880;29;20799;-90
2023/03/26 00:09:45;;;;;;;23.60;15.23;;;;;;;;;;2046572;29;20035;-88
2023/03/26 00:10:45;;;;;;;21.48;14.43;;;;;;;;;;2046592;29;20528;-88
2023/03/26 00:11:46;;;;;;;18.85;13.98;;;;;;;;;;2038044;29;20131;-89
2023/03/26 00:12:46;;;;;;;22.05;14.35;;;;;;;;;;2030138;29;20417;-89
2023/03/26 00:13:47;;;;;;;19.27;15.00;;;;;;;;;;2037884;29;20027;-89
2023/03/26 00:14:47;;;;;;;20.27;14.35;;;;;;;;;;2045828;29;20087;-88
2023/03/26 00:15:48;;;;;;;19.83;14.30;;;;;;;;;;2045924;29;20027;-90
2023/03/26 00:16:48;;;;;;;18.70;13.63;;;;;;;;;;2046594;28;20102;-88
2023/03/26 00:17:49;;;;;;;18.08;13.75;;;;;;;;;;2039295;29;20098;-89
2023/03/26 00:18:50;;;;;;;21.92;14.48;;;;;;;;;;2031690;29;20028;-88
2023/03/26 00:19:52;;;;;;;20.35;14.18;;;;;;;;;;2031736;29;20027;-89
2023/03/26 00:20:52;;;;;;;23.20;14.63;;;;;;;;;;2039945;29;20475;-89
2023/03/26 00:21:53;;;;;;;18.40;13.25;;;;;;;;;;2048047;29;20031;-88
2023/03/26 00:22:54;;;;;;;21.55;14.65;;;;;;;;;;2047987;29;20057;-87
2023/03/26 00:24:10;;;;;;;23.92;14.40;;;;;;;;;;2048090;29;20027;-87
2023/03/26 00:25:11;;;;;;;21.35;14.43;;;;;;;;;;2039342;29;20479;-89
2023/03/26 00:26:11;;;;;;;20.38;14.48;;;;;;;;;;2039523;29;20030;-88
2023/03/26 00:27:12;;;;;;;20.13;14.45;;;;;;;;;;2047244;29;20019;-88
2023/03/26 00:28:12;;;;;;;21.80;14.27;;;;;;;;;;2048513;29;20684;-90
2023/03/26 00:29:12;;;;;;;19.65;14.02;;;;;;;;;;2039358;29;20047;-90
2023/03/26 00:30:13;;;;;;;19.77;13.65;;;;;;;;;;2039192;29;20506;-89
2023/03/26 00:31:14;;;;;;;16.88;12.55;;;;;;;;;;2039158;29;20107;-88
2023/03/26 00:32:15;;;;;;;18.88;14.02;;;;;;;;;;2039678;29;20155;-92
2023/03/26 00:33:18;;;;;;;17.10;12.35;;;;;;;;;;2039280;29;20027;-91
2023/03/26 00:34:19;;;;;;;17.88;13.30;;;;;;;;;;2039745;29;20355;-89
2023/03/26 00:35:21;;;;;;;19.25;12.68;;;;;;;;;;2039579;29;20032;-90
2023/03/26 00:36:24;;;;;;;17.95;12.73;;;;;;;;;;2031653;29;20024;-88
2023/03/26 00:37:27;;;;;;;17.48;13.30;;;;;;;;;;2031698;29;20028;-88
2023/03/26 00:38:28;;;;;;;18.70;12.90;;;;;;;;;;2039705;29;20512;-89
2023/03/26 00:39:32;;;;;;;18.08;13.30;;;;;;;;;;2039295;29;20016;-90
2023/03/26 00:40:35;;;;;;;18.63;13.10;;;;;;;;;;2039870;29;20528;-91
2023/03/26 00:41:53;;;;;;;22.35;12.35;;;;;;;;;;2325932;23;20106;-89
2023/03/26 00:42:53;;;;;;;18.73;13.13;;;;;;;;;;2048367;29;20039;-87
2023/03/26 00:43:58;;;;;;;19.52;12.63;;;;;;;;;;2032423;29;20079;-88
2023/03/26 00:44:58;;;;;;;19.58;14.02;;;;;;;;;;2040542;29;20028;-88
2023/03/26 00:46:00;;;;;;;20.48;13.38;;;;;;;;;;2048097;29;20106;-89
2023/03/26 00:47:02;;;;;;;22.25;13.52;;;;;;;;;;2039230;29;20063;-89
2023/03/26 00:48:02;;;;;;;20.85;13.43;;;;;;;;;;2031704;29;20039;-89
2023/03/26 00:49:03;;;;;;;19.08;14.00;;;;;;;;;;2031323;29;20028;-89
2023/03/26 00:50:04;;;;;;;22.90;14.63;;;;;;;;;;2039370;29;20058;-89
2023/03/26 00:51:05;;;;;;;21.20;14.60;;;;;;;;;;2039576;29;20088;-88
2023/03/26 00:52:07;;;;;;;21.65;14.25;;;;;;;;;;2031359;29;20608;-89
2023/03/26 00:53:10;;;;;;;21.27;14.63;;;;;;;;;;2039422;29;20050;-89
2023/03/26 00:54:12;;;;;;;21.70;14.40;;;;;;;;;;2039093;29;20471;-91
2023/03/26 00:55:14;;;;;;;20.15;14.27;;;;;;;;;;2031311;29;20032;-90
2023/03/26 00:56:16;;;;;;;22.20;14.20;;;;;;;;;;2031542;29;20055;-88
2023/03/26 00:57:19;;;;;;;21.30;13.77;;;;;;;;;;2039404;29;20059;-90
2023/03/26 00:58:21;;;;;;;19.35;13.70;;;;;;;;;;2039069;29;20478;-90
2023/03/26 00:59:21;;;;;;;21.45;13.98;;;;;;;;;;2039280;29;20492;-89
2023/03/26 01:00:33;;;;;;;22.55;13.93;;;;;;;;;;2047615;29;20130;-90
2023/03/26 01:01:34;;;;;;;21.05;14.00;;;;;;;;;;2047682;29;20292;-89
2023/03/26 01:02:35;;;;;;;24.25;15.48;;;;;;;;;;2047882;29;20107;-90
2023/03/26 01:03:37;;;;;;;21.98;15.00;;;;;;;;;;2039241;29;20043;-89
2023/03/26 01:04:37;;;;;;;22.00;14.23;;;;;;;;;;2039257;29;20515;-89
2023/03/26 01:05:47;;;;;;;20.65;13.75;;;;;;;;;;2039962;29;20042;-89
2023/03/26 01:06:48;;;;;;;21.98;13.77;;;;;;;;;;2051108;28;20016;-90
2023/03/26 01:07:49;;;;;;;22.42;14.57;;;;;;;;;;2047961;28;20301;-90
2023/03/26 01:08:51;;;;;;;21.38;15.13;;;;;;;;;;2040095;29;20066;-88
2023/03/26 01:09:53;;;;;;;27.67;15.85;;;;;;;;;;2032777;29;20113;-90
2023/03/26 01:11:01;;;;;;;25.92;15.32;;;;;;;;;;2040422;29;20023;-90
2023/03/26 01:12:05;;;;;;;22.35;14.68;;;;;;;;;;2038944;29;20519;-90
2023/03/26 01:13:07;;;;;;;20.23;14.32;;;;;;;;;;2031435;29;20438;-90
2023/03/26 01:14:11;;;;;;;24.13;14.70;;;;;;;;;;2039173;29;20507;-90
2023/03/26 01:15:12;;;;;;;24.13;16.17;;;;;;;;;;2039038;29;20098;-89
2023/03/26 01:16:32;;;;;;;24.63;15.65;;;;;;;;;;2039248;29;20031;-88
2023/03/26 01:17:36;;;;;;;21.77;15.52;;;;;;;;;;2041622;29;20015;-88
2023/03/26 01:18:39;;;;;;;25.20;16.40;;;;;;;;;;2048078;29;20021;-88
2023/03/26 01:19:49;;;;;;;25.85;15.40;;;;;;;;;;2047674;28;20414;-90
2023/03/26 01:20:49;;;;;;;21.58;15.95;;;;;;;;;;2047023;29;20031;-90
2023/03/26 01:21:50;;;;;;;26.95;15.80;;;;;;;;;;2038870;29;20511;-90
2023/03/26 01:22:53;;;;;;;;;;;;;;;;;;2031384;29;20091;-89
2023/03/26 01:24:05;;;;;;;22.42;15.65;;;;;;;;;;2031119;29;20005;-90
2023/03/26 01:26:35;;;;;;;23.65;16.45;;;;;;;;;;2215790;23;20091;-89
2023/03/26 01:28:07;;;;;;;25.48;15.20;;;;;;;;;;2048395;28;20091;-89
2023/03/26 01:29:33;;;;;;;22.02;14.85;;;;;;;;;;2034891;29;20039;-89
2023/03/26 01:30:41;;;;;;;22.90;15.00;;;;;;;;;;2038405;29;20042;-89
2023/03/26 01:31:54;;;;;;;20.20;14.43;;;;;;;;;;2038755;29;20089;-90
2023/03/26 01:33:12;;;;;;;18.00;13.65;;;;;;;;;;2039234;29;20066;-88
2023/03/26 01:34:23;;;;;;;21.20;14.32;;;;;;;;;;1698792;29;10001465;-89
2023/03/26 01:35:53;;;;;;;20.17;14.52;;;;;;;;;;2034512;29;20028;-89
2023/03/26 01:37:00;;;;;;;21.90;14.63;;;;;;;;;;2047456;29;20024;-88
2023/03/26 01:38:21;;;;;;;21.20;13.90;;;;;;;;;;2041103;29;20110;-88
2023/03/26 01:39:33;;;;;;;17.95;12.63;;;;;;;;;;2039455;29;20024;-89
2023/03/26 01:40:37;;;;;;;17.88;12.35;;;;;;;;;;2046991;29;20027;-90
2023/03/26 01:42:15;;;;;;;20.33;12.80;;;;;;;;;;2038745;29;20042;-89
2023/03/26 01:43:21;;;;;;;17.15;12.35;;;;;;;;;;2027199;29;20032;-88
2023/03/26 01:44:30;;;;;;;15.27;11.15;;;;;;;;;;2036706;29;20032;-89
2023/03/26 01:45:35;;;;;;;15.13;10.80;;;;;;;;;;2031991;29;20727;-90
2023/03/26 01:46:36;;;;;;;15.48;11.05;;;;;;;;;;2038836;29;20133;-90
2023/03/26 01:47:39;;;;;;;14.23;10.90;;;;;;;;;;2039727;29;20118;-90
2023/03/26 01:48:42;;;;;;;16.38;11.48;;;;;;;;;;2038880;29;20044;-89
2023/03/26 01:49:43;;;;;;;14.90;10.95;;;;;;;;;;2039298;29;20034;-89
2023/03/26 01:50:44;;;;;;;15.00;11.30;;;;;;;;;;2039163;29;20034;-89
2023/03/26 01:51:47;;;;;;;13.85;10.48;;;;;;;;;;2044006;29;20083;-96
2023/03/26 01:52:48;;;;;;;17.48;10.63;;;;;;;;;;2046294;29;20035;-90
2023/03/26 01:53:48;;;;;;;14.43;10.68;;;;;;;;;;2038702;29;20546;-90
2023/03/26 01:54:49;;;;;;;17.33;10.63;;;;;;;;;;2030883;29;20095;-90
2023/03/26 01:56:02;;;;;;;15.63;11.50;;;;;;;;;;2038479;29;20047;-90
2023/03/26 01:57:15;;;;;;;15.52;11.13;;;;;;;;;;2038733;29;20400;-88
2023/03/26 01:58:29;;;;;;;13.82;10.10;;;;;;;;;;2032347;29;20075;-88
2023/03/26 01:59:52;;;;;;;14.80;10.48;;;;;;;;;;2032391;29;20114;-91
2023/03/26 02:01:25;;;;;;;13.07;9.77;;;;;;;;;;2041102;29;20682;-89
2023/03/26 02:02:37;;;;;;;15.27;12.00;;;;;;;;;;2031221;29;20518;-90
2023/03/26 02:03:52;;;;;;;13.65;10.45;;;;;;;;;;2032083;29;20099;-90
2023/03/26 02:05:16;;;;;;;13.68;10.77;;;;;;;;;;2032341;29;20067;-89
2023/03/26 02:06:29;;;;;;;15.18;10.88;;;;;;;;;;2039040;29;20034;-90
2023/03/26 02:07:39;;;;;;;13.35;11.32;;;;;;;;;;2038948;29;20038;-88
2023/03/26 02:08:44;;;;;;;15.70;11.50;;;;;;;;;;2038448;29;20487;-88
2023/03/26 02:09:49;;;;;;;15.50;10.93;;;;;;;;;;2031420;29;20032;-89
2023/03/26 02:10:55;;;;;;;15.75;11.00;;;;;;;;;;2031252;29;20451;-88
2023/03/26 02:11:57;;;;;;;14.52;10.85;;;;;;;;;;2032156;29;20134;-89
2023/03/26 02:12:59;;;;;;;14.35;11.45;;;;;;;;;;2038633;29;20036;-89
2023/03/26 02:13:59;;;;;;;16.20;11.63;;;;;;;;;;2046526;29;20063;-89
2023/03/26 02:15:01;;;;;;;16.52;11.20;;;;;;;;;;2038506;29;20098;-89
2023/03/26 02:16:04;;;;;;;17.77;11.35;;;;;;;;;;2038488;29;20099;-89
2023/03/26 02:17:04;;;;;;;14.95;11.70;;;;;;;;;;2038920;29;20412;-90
2023/03/26 02:18:05;;;;;;;15.38;11.18;;;;;;;;;;2038398;29;20042;-90
2023/03/26 02:19:14;;;;;;;18.20;12.43;;;;;;;;;;1690389;29;10230338;-89
2023/03/26 02:20:17;;;;;;;15.70;11.93;;;;;;;;;;2031840;29;20031;-89
2023/03/26 02:21:20;;;;;;;19.90;12.02;;;;;;;;;;2030883;29;20028;-89
2023/03/26 02:22:21;;;;;;;18.15;11.55;;;;;;;;;;2038085;29;20072;-89
2023/03/26 02:23:22;;;;;;;18.05;12.20;;;;;;;;;;2038447;29;20067;-89
2023/03/26 02:24:22;;;;;;;15.25;11.30;;;;;;;;;;2038352;29;20023;-91
2023/03/26 02:25:23;;;;;;;;;;;;;;;;;;2039238;29;20453;-91
2023/03/26 02:26:24;;;;;;;17.30;11.63;;;;;;;;;;2039812;29;20016;-90
2023/03/26 02:27:25;;;;;;;15.45;11.05;;;;;;;;;;2033867;29;20024;-90
2023/03/26 02:28:25;;;;;;;15.55;11.25;;;;;;;;;;2031125;29;20066;-90
2023/03/26 02:29:26;;;;;;;16.25;11.70;;;;;;;;;;2031246;29;20343;-91
2023/03/26 02:30:28;;;;;;;;;;;;;;;;;;2044504;29;20016;-90
2023/03/26 02:31:29;;;;;;;17.80;12.77;;;;;;;;;;2055647;29;19910;-90
2023/03/26 02:32:29;;;;;;;17.25;11.98;;;;;;;;;;2038778;29;20054;-91
2023/03/26 02:33:30;;;;;;;;;;;;;;;;;;2039098;29;20482;-90
2023/03/26 02:34:31;;;;;;;16.45;11.55;;;;;;;;;;2038539;29;19942;-90
2023/03/26 02:35:31;;;;;;;16.65;11.77;;;;;;;;;;2038544;29;20290;-90
2023/03/26 02:36:34;;;;;;;14.90;11.95;;;;;;;;;;1690120;29;10241193;-89
2023/03/26 02:37:35;;;;;;;15.65;11.73;;;;;;;;;;2031031;29;20472;-89
2023/03/26 02:38:35;;;;;;;15.75;12.18;;;;;;;;;;2030773;29;20020;-90
2023/03/26 02:39:35;;;;;;;18.27;12.77;;;;;;;;;;2030725;29;20568;-90
2023/03/26 02:40:36;;;;;;;15.23;11.38;;;;;;;;;;2037699;29;20030;-89
2023/03/26 02:41:37;;;;;;;16.42;11.63;;;;;;;;;;2038608;29;20059;-91
2023/03/26 02:42:37;;;;;;;17.15;12.73;;;;;;;;;;2030576;29;20118;-90
2023/03/26 02:43:38;;;;;;;16.75;13.00;;;;;;;;;;2038462;29;20423;-90
2023/03/26 02:44:39;;;;;;;16.77;12.90;;;;;;;;;;2039149;29;20046;-91
2023/03/26 02:45:39;;;;;;;16.25;11.18;;;;;;;;;;2038415;29;20027;-90
2023/03/26 02:46:40;;;;;;;17.40;12.27;;;;;;;;;;2030339;29;20385;-91
2023/03/26 02:47:40;;;;;;;17.73;12.18;;;;;;;;;;2038209;29;20111;-90
2023/03/26 02:48:41;;;;;;;15.05;11.68;;;;;;;;;;2039021;29;20503;-90
2023/03/26 02:49:42;;;;;;;19.58;12.90;;;;;;;;;;2038381;29;20019;-91
2023/03/26 02:50:43;;;;;;;17.58;12.13;;;;;;;;;;2038201;29;20475;-90
2023/03/26 02:51:43;;;;;;;18.45;12.43;;;;;;;;;;2038250;29;20517;-90
2023/03/26 02:52:44;;;;;;;18.60;12.65;;;;;;;;;;2038162;29;20512;-90
2023/03/26 02:53:44;;;;;;;;;;;;;;;;;;2038516;29;20027;-90
2023/03/26 02:54:45;;;;;;;16.50;12.80;;;;;;;;;;2038322;29;19986;-89
2023/03/26 02:55:47;;;;;;;19.27;12.67;;;;;;;;;;1697347;29;10044194;-90
2023/03/26 02:56:47;;;;;;;14.07;11.52;;;;;;;;;;2039215;29;20099;-89
2023/03/26 02:57:47;;;;;;;15.07;11.75;;;;;;;;;;2038566;29;20118;-90
2023/03/26 02:58:48;;;;;;;18.88;13.10;;;;;;;;;;2030503;29;20036;-90
2023/03/26 02:59:49;;;;;;;17.55;12.55;;;;;;;;;;2038688;29;20028;-90
2023/03/26 03:00:53;;;;;;;22.55;13.43;;;;;;;;;;2046463;29;20069;-89
2023/03/26 03:01:54;;;;;;;17.95;12.35;;;;;;;;;;2038800;29;20031;-89
2023/03/26 03:02:56;;;;;;;17.05;12.95;;;;;;;;;;2046126;29;20498;-90
2023/03/26 03:04:01;;;;;;;19.13;12.25;;;;;;;;;;2038295;29;20045;-91
2023/03/26 03:05:01;;;;;;;17.83;13.13;;;;;;;;;;2038258;29;20051;-90
2023/03/26 03:06:02;;;;;;;19.33;13.30;;;;;;;;;;2046313;29;20023;-90
2023/03/26 03:07:02;;;;;;;17.02;12.60;;;;;;;;;;2038054;29;20086;-90
2023/03/26 03:08:04;;;;;;;18.33;13.35;;;;;;;;;;2038459;29;20035;-90
2023/03/26 03:09:09;;;;;;;17.95;13.07;;;;;;;;;;2038084;29;20466;-89
2023/03/26 03:10:12;;;;;;;17.27;12.38;;;;;;;;;;2030835;29;20028;-90
2023/03/26 03:11:16;;;;;;;18.83;13.57;;;;;;;;;;2030641;29;20361;-90
2023/03/26 03:12:16;;;;;;;16.33;12.70;;;;;;;;;;2038454;29;20185;-89
2023/03/26 03:13:17;;;;;;;19.27;13.35;;;;;;;;;;2038193;29;20023;-90
2023/03/26 03:14:18;;;;;;;19.15;13.60;;;;;;;;;;2037989;29;20459;-89
2023/03/26 03:15:19;;;;;;;15.73;12.23;;;;;;;;;;2038847;29;20020;-90
2023/03/26 03:16:19;;;;;;;20.77;14.15;;;;;;;;;;2037862;29;20038;-90
2023/03/26 03:17:20;;;;;;;17.20;12.75;;;;;;;;;;2038003;29;20019;-90
2023/03/26 03:18:20;;;;;;;18.10;12.18;;;;;;;;;;2045944;29;20490;-89
2023/03/26 03:19:21;;;;;;;17.23;13.30;;;;;;;;;;2038159;29;20118;-89
2023/03/26 03:20:21;;;;;;;20.00;12.73;;;;;;;;;;2038154;29;20024;-89
2023/03/26 03:21:24;;;;;;;17.65;12.63;;;;;;;;;;2038789;29;20023;-88
2023/03/26 03:22:24;;;;;;;17.90;12.30;;;;;;;;;;2037884;29;20016;-89
2023/03/26 03:23:25;;;;;;;17.85;12.80;;;;;;;;;;2038336;29;20024;-89
2023/03/26 03:24:26;;;;;;;18.13;13.25;;;;;;;;;;2049924;29;20046;-89
2023/03/26 03:25:26;;;;;;;18.23;12.07;;;;;;;;;;2053959;29;20015;-89
2023/03/26 03:26:28;;;;;;;16.50;11.90;;;;;;;;;;2047477;29;20461;-89
2023/03/26 03:27:29;;;;;;;19.45;13.00;;;;;;;;;;2046878;29;20118;-89
2023/03/26 03:28:30;;;;;;;17.42;12.70;;;;;;;;;;2038160;29;20031;-88
2023/03/26 03:29:30;;;;;;;17.15;11.98;;;;;;;;;;2038394;29;20031;-89
2023/03/26 03:30:30;;;;;;;17.50;12.52;;;;;;;;;;2038304;29;20047;-88
2023/03/26 03:31:31;;;;;;;19.70;12.63;;;;;;;;;;2038461;29;20135;-89
2023/03/26 03:32:31;;;;;;;17.88;13.32;;;;;;;;;;2046900;29;20027;-88
2023/03/26 03:33:32;;;;;;;16.30;12.68;;;;;;;;;;2038143;29;20024;-89
2023/03/26 03:34:32;;;;;;;17.33;13.23;;;;;;;;;;2031400;29;20079;-88
2023/03/26 03:35:33;;;;;;;17.02;13.13;;;;;;;;;;2038136;29;20066;-89
2023/03/26 03:36:37;;;;;;;19.27;13.02;;;;;;;;;;2047114;29;20439;-89
2023/03/26 03:37:37;;;;;;;18.65;14.07;;;;;;;;;;2053637;28;20019;-88
2023/03/26 03:38:40;;;;;;;21.38;14.07;;;;;;;;;;2057022;28;20090;-89
2023/03/26 03:39:40;;;;;;;19.02;13.70;;;;;;;;;;2057311;28;20035;-88
2023/03/26 03:40:40;;;;;;;19.25;15.00;;;;;;;;;;2049143;29;20035;-90
2023/03/26 03:41:41;;;;;;;18.20;14.40;;;;;;;;;;2047177;29;20055;-89
2023/03/26 03:42:41;;;;;;;19.20;13.68;;;;;;;;;;2038437;29;20031;-89
2023/03/26 03:43:42;;;;;;;17.65;12.90;;;;;;;;;;2030068;29;20456;-91
2023/03/26 03:44:42;;;;;;;19.20;13.73;;;;;;;;;;2030254;29;20028;-90
2023/03/26 03:45:43;;;;;;;18.52;14.02;;;;;;;;;;2037760;29;20111;-90
2023/03/26 03:46:43;;;;;;;18.02;13.18;;;;;;;;;;2046538;29;20030;-90
2023/03/26 03:47:44;;;;;;;18.50;13.27;;;;;;;;;;2045718;29;20020;-89
2023/03/26 03:48:48;;;;;;;21.15;14.73;;;;;;;;;;2046028;29;20491;-89
2023/03/26 03:49:49;;;;;;;20.67;14.35;;;;;;;;;;2046673;29;20114;-90
2023/03/26 03:50:49;;;;;;;18.45;13.95;;;;;;;;;;2046753;29;20027;-90
2023/03/26 03:51:50;;;;;;;18.30;14.05;;;;;;;;;;2038819;29;20019;-90
2023/03/26 03:52:50;;;;;;;21.02;14.38;;;;;;;;;;2039846;29;20047;-90
2023/03/26 03:53:51;;;;;;;18.60;13.10;;;;;;;;;;2048280;29;20034;-90
2023/03/26 03:54:53;;;;;;;18.10;12.88;;;;;;;;;;2039353;29;20023;-90
2023/03/26 03:55:54;;;;;;;18.90;12.90;;;;;;;;;;2041326;29;20102;-90
2023/03/26 03:56:55;;;;;;;15.65;12.52;;;;;;;;;;2050530;28;20020;-89
2023/03/26 03:57:57;;;;;;;17.15;12.15;;;;;;;;;;2042727;29;20040;-90
2023/03/26 03:58:58;;;;;;;20.33;12.40;;;;;;;;;;2047305;28;20227;-90
2023/03/26 03:59:59;;;;;;;17.70;12.18;;;;;;;;;;2048745;29;20051;-90
2023/03/26 04:01:03;;;;;;;15.30;11.40;;;;;;;;;;2040418;29;20038;-89
2023/03/26 04:02:03;;;;;;;14.93;10.27;;;;;;;;;;2032681;29;20039;-91
2023/03/26 04:03:05;;;;;;;14.90;10.52;;;;;;;;;;2044135;29;20027;-89
2023/03/26 04:04:05;;;;;;;14.75;10.85;;;;;;;;;;2040390;29;20039;-88
2023/03/26 04:05:06;;;;;;;13.68;10.35;;;;;;;;;;2032842;29;20199;-88
2023/03/26 04:06:07;;;;;;;15.52;11.20;;;;;;;;;;2043254;29;20024;-88
2023/03/26 04:07:07;;;;;;;16.60;10.68;;;;;;;;;;2051358;29;20087;-89
2023/03/26 04:08:07;;;;;;;12.93;10.38;;;;;;;;;;2048545;29;20023;-90
2023/03/26 04:09:11;;;;;;;12.48;10.02;;;;;;;;;;2047424;29;20046;-89
2023/03/26 04:10:14;;;;;;;13.40;10.38;;;;;;;;;;2047555;29;20058;-90
2023/03/26 04:11:14;;;;;;;13.15;8.88;;;;;;;;;;2039415;29;20589;-89
2023/03/26 04:12:15;;;;;;;14.52;9.73;;;;;;;;;;2031450;29;20122;-89
2023/03/26 04:13:16;;;;;;;13.82;10.27;;;;;;;;;;2031619;29;20716;-89
2023/03/26 04:14:16;;;;;;;10.20;8.05;;;;;;;;;;2039372;29;20034;-89
2023/03/26 04:15:17;;;;;;;12.52;8.98;;;;;;;;;;2039424;29;20544;-89
2023/03/26 04:16:17;;;;;;;11.90;8.80;;;;;;;;;;2039432;29;20034;-88
2023/03/26 04:17:20;;;;;;;14.27;9.27;;;;;;;;;;2047938;29;20046;-88
2023/03/26 04:18:22;;;;;;;12.20;8.48;;;;;;;;;;2042482;29;20047;-90
2023/03/26 04:19:22;;;;;;;10.88;8.25;;;;;;;;;;2046992;29;20020;-88
2023/03/26 04:20:22;;;;;;;9.75;7.35;;;;;;;;;;2051950;29;20019;-89
2023/03/26 04:21:25;;;;;;;12.75;8.70;;;;;;;;;;2039456;29;20499;-89
2023/03/26 04:22:35;;;;;;;11.32;8.25;;;;;;;;;;2031935;29;20032;-88
2023/03/26 04:23:35;;;;;;;10.60;8.48;;;;;;;;;;2032682;29;20027;-89
2023/03/26 04:24:39;;;;;;;14.75;8.77;;;;;;;;;;2041327;29;20088;-88
2023/03/26 04:25:52;;;;;;;10.60;7.68;;;;;;;;;;2048123;29;20069;-90
2023/03/26 04:26:53;;;;;;;9.20;7.18;;;;;;;;;;2039864;29;20024;-90
2023/03/26 04:27:57;;;;;;;8.82;6.82;;;;;;;;;;2031755;29;20048;-89
2023/03/26 04:29:01;;;;;;;8.52;6.35;;;;;;;;;;2040033;29;20172;-89
2023/03/26 04:30:06;;;;;;;7.63;5.55;;;;;;;;;;2039497;29;20087;-88
2023/03/26 04:31:10;;;;;;;7.97;6.50;;;;;;;;;;2032433;29;20136;-89
2023/03/26 04:32:20;;;;;;;6.78;5.90;;;;;;;;;;2040445;29;20034;-88
2023/03/26 04:33:21;;;;;;;6.33;4.83;;;;;;;;;;2048337;29;20023;-90
2023/03/26 04:34:25;;;;;;;6.00;5.40;;;;;;;;;;2047833;29;20274;-89
2023/03/26 04:35:25;;;;;;;6.57;5.72;;;;;;;;;;2039319;29;20470;-88
2023/03/26 04:36:28;;;;;;;8.73;5.88;;;;;;;;;;2031770;29;20024;-89
2023/03/26 04:37:38;;;;;;;7.05;4.93;;;;;;;;;;2031805;29;20024;-88
2023/03/26 04:38:42;;;;;;;6.75;5.38;;;;;;;;;;2032711;29;20051;-88
2023/03/26 04:39:43;;;;;;;7.18;5.65;;;;;;;;;;2039710;29;20135;-89
2023/03/26 04:40:46;;;;;;;7.40;5.88;;;;;;;;;;2048063;29;20406;-90
2023/03/26 04:41:47;;;;;;;6.93;5.15;;;;;;;;;;2039126;29;20492;-90
2023/03/26 04:42:47;;;;;;;7.13;5.10;;;;;;;;;;2039444;29;20051;-90
2023/03/26 04:43:49;;;;;;;7.63;5.43;;;;;;;;;;2047260;29;20053;-90
2023/03/26 04:44:51;;;;;;;6.93;4.78;;;;;;;;;;2047303;29;20043;-89
2023/03/26 04:45:52;;;;;;;7.80;4.63;;;;;;;;;;2039201;29;20105;-89
2023/03/26 04:46:54;;;;;;;5.68;4.97;;;;;;;;;;2031610;29;20595;-89
2023/03/26 04:47:54;;;;;;;6.15;5.00;;;;;;;;;;2039435;29;20337;-90
2023/03/26 04:48:55;;;;;;;5.40;4.22;;;;;;;;;;2039223;29;20038;-90
2023/03/26 04:49:55;;;;;;;6.00;4.18;;;;;;;;;;2039142;29;20068;-90
2023/03/26 04:50:56;;;;;;;6.32;4.43;;;;;;;;;;2039444;29;20023;-88
2023/03/26 04:51:56;;;;;;;5.25;3.45;;;;;;;;;;2039237;29;20051;-89
2023/03/26 04:52:57;;;;;;;4.65;3.70;;;;;;;;;;2039176;29;20043;-90
2023/03/26 04:53:58;;;;;;;5.93;2.85;;;;;;;;;;2038943;29;20087;-89
2023/03/26 04:54:59;;;;;;;3.75;2.83;;;;;;;;;;2047733;29;20105;-88
2023/03/26 04:56:16;;;;;;;4.03;2.83;;;;;;;;;;2047552;29;20031;-90
2023/03/26 04:57:22;;;;;;;5.47;3.15;;;;;;;;;;2039756;29;20031;-89
2023/03/26 04:58:29;;;;;;;3.90;2.42;;;;;;;;;;2039722;29;20534;-90
2023/03/26 04:59:33;;;;;;;3.42;2.20;;;;;;;;;;2038917;29;20522;-89
2023/03/26 05:00:35;;;;;;;3.97;2.40;;;;;;;;;;2039917;29;20118;-89
2023/03/26 05:01:36;;;;;;;5.65;2.35;;;;;;;;;;2047662;29;20019;-87
2023/03/26 05:02:38;;;;;;;3.50;2.47;;;;;;;;;;2039193;29;20030;-88
2023/03/26 05:03:40;;;;;;;4.43;2.20;;;;;;;;;;2038550;29;20135;-90
2023/03/26 05:04:42;;;;;;;5.10;2.28;;;;;;;;;;2038821;29;20050;-87
2023/03/26 05:05:43;;;;;;;5.28;3.00;;;;;;;;;;1687795;29;10326052;-89
2023/03/26 05:06:43;;;;;;;2.28;1.67;;;;;;;;;;2038768;29;20036;-89
2023/03/26 05:07:44;;;;;;;3.88;2.67;;;;;;;;;;2030870;29;20076;-90
2023/03/26 05:08:45;;;;;;;2.60;2.40;;;;;;;;;;2038670;29;20035;-89
2023/03/26 05:09:45;;;;;;;1.39;1.29;;;;;;;;;;1690633;29;10233003;-89
2023/03/26 05:10:45;;;;;;;1.98;1.33;;;;;;;;;;2039102;29;20032;-90
2023/03/26 05:11:47;;;;;;;1.85;1.58;;;;;;;;;;2038942;29;20091;-89
2023/03/26 05:12:47;;;;;;;1.60;1.38;;;;;;;;;;2033463;29;20028;-88
2023/03/26 05:13:48;;;;;;;1.50;1.35;;;;;;;;;;2044354;29;20581;-87
2023/03/26 05:14:48;;;;;;;1.90;1.30;;;;;;;;;;2042363;29;20095;-88
2023/03/26 05:15:50;;;;;;;2.95;1.73;;;;;;;;;;2039313;29;20464;-89
2023/03/26 05:16:52;;;;;;;2.05;1.40;;;;;;;;;;2047775;29;20580;-88
2023/03/26 05:17:54;;;;;;;1.75;1.15;;;;;;;;;;2038872;29;20012;-88
2023/03/26 05:18:54;;;;;;;1.38;1.20;;;;;;;;;;2031515;29;20032;-89
2023/03/26 05:19:55;;;;;;;2.05;1.30;;;;;;;;;;2031256;29;20096;-89
2023/03/26 05:20:56;;;;;;;2.38;1.25;;;;;;;;;;2039170;29;20082;-88
2023/03/26 05:21:56;;;;;;;1.75;1.45;;;;;;;;;;2047662;29;20171;-89
2023/03/26 05:22:57;;;;;;;2.63;1.35;;;;;;;;;;2047621;29;20075;-88
2023/03/26 05:23:57;;;;;;;1.88;1.40;;;;;;;;;;2038858;29;20055;-88
2023/03/26 05:24:59;;;;;;;1.35;1.10;;;;;;;;;;2031260;29;20458;-89
2023/03/26 05:26:00;;;;;;;2.60;1.48;;;;;;;;;;2031115;29;20024;-89
2023/03/26 05:27:00;;;;;;;2.47;1.50;;;;;;;;;;2031233;29;20590;-88
2023/03/26 05:28:01;;;;;;;2.33;1.23;;;;;;;;;;2039029;29;20112;-88
2023/03/26 05:29:03;;;;;;;2.22;1.15;;;;;;;;;;2047000;29;20055;-88
2023/03/26 05:30:06;;;;;;;1.84;1.38;;;;;;;;;;1697688;29;10244453;-89
2023/03/26 05:31:07;;;;;;;3.63;1.60;;;;;;;;;;2047606;28;20055;-87
2023/03/26 05:32:10;;;;;;;2.50;1.60;;;;;;;;;;2038775;29;20058;-88
2023/03/26 05:33:10;;;;;;;1.83;1.10;;;;;;;;;;2039487;29;20075;-89
2023/03/26 05:34:12;;;;;;;2.45;1.23;;;;;;;;;;2038935;29;20106;-88
2023/03/26 05:35:14;;;;;;;4.57;1.80;;;;;;;;;;2038979;29;20024;-89
2023/03/26 05:36:16;;;;;;;4.95;1.73;;;;;;;;;;2031047;29;20109;-89
2023/03/26 05:37:16;;;;;;;3.72;1.42;;;;;;;;;;2031028;29;20047;-89
2023/03/26 05:38:17;;;;;;;2.70;1.33;;;;;;;;;;2038934;29;20068;-88
2023/03/26 05:39:24;;;;;;;3.42;1.30;;;;;;;;;;2047644;29;20027;-89
2023/03/26 05:40:24;;;;;;;1.58;1.27;;;;;;;;;;2049337;28;20034;-89
2023/03/26 05:41:28;;;;;;;2.15;1.20;;;;;;;;;;2047759;29;20031;-90
2023/03/26 05:44:09;;;;;;;4.70;1.20;;;;;;;;;;2022314;29;20551;-90
2023/03/26 05:45:11;;;;;;;1.63;1.05;;;;;;;;;;2041030;29;20047;-90
2023/03/26 05:46:30;;;;;;;1.58;1.10;;;;;;;;;;2047133;29;20035;-90
2023/03/26 05:47:31;;;;;;;3.50;2.03;;;;;;;;;;2047181;29;20035;-88
2023/03/26 05:48:32;;;;;;;2.30;1.48;;;;;;;;;;2047131;29;20090;-88
2023/03/26 05:49:32;;;;;;;1.75;1.33;;;;;;;;;;2038212;29;20118;-88
2023/03/26 05:50:32;;;;;;;1.95;1.38;;;;;;;;;;2030525;29;20123;-87
2023/03/26 05:51:33;;;;;;;2.30;1.40;;;;;;;;;;2030320;29;20583;-88
2023/03/26 05:52:33;;;;;;;1.38;1.13;;;;;;;;;;2038430;29;20066;-88
2023/03/26 05:53:34;;;;;;;1.45;1.20;;;;;;;;;;2038196;29;20034;-90
2023/03/26 05:54:34;;;;;;;2.78;1.25;;;;;;;;;;2038486;29;20035;-88
2023/03/26 05:55:35;;;;;;;1.52;1.08;;;;;;;;;;2049032;29;20023;-87
2023/03/26 05:56:35;;;;;;;1.35;1.08;;;;;;;;;;2047456;29;20027;-87
2023/03/26 05:57:36;;;;;;;2.10;1.05;;;;;;;;;;2038132;29;20034;-88
2023/03/26 05:58:37;;;;;;;1.98;1.20;;;;;;;;;;2038488;29;20363;-88
2023/03/26 05:59:37;;;;;;;3.17;1.40;;;;;;;;;;2047141;29;20328;-89
2023/03/26 06:00:51;;;;;;;3.10;1.77;;;;;;;;;;2047108;29;20035;-89
2023/03/26 06:02:00;;;;;;;1.55;1.40;;;;;;;;;;1869245;29;10366140;-88
2023/03/26 06:03:00;;;;;;;2.47;1.30;;;;;;;;;;2045292;29;20249;-88
2023/03/26 06:04:01;;;;;;;1.90;1.30;;;;;;;;;;2038621;29;20036;-88
2023/03/26 06:05:03;;;;;;;2.33;1.40;;;;;;;;;;2038734;29;20034;-88
2023/03/26 06:06:08;;;;;;;2.30;1.23;;;;;;;;;;2025823;29;20081;-88
2023/03/26 06:07:09;;;;;;;1.45;1.10;;;;;;;;;;2035819;29;20020;-88
2023/03/26 06:08:09;;;;;;;1.40;1.17;;;;;;;;;;2041099;29;20066;-88
2023/03/26 06:09:13;;;;;;;1.38;1.17;;;;;;;;;;2033574;29;20135;-88
2023/03/26 06:10:16;;;;;;;1.60;1.50;;;;;;;;;;2032706;29;20037;-88
2023/03/26 06:11:18;;;;;;;1.23;1.13;;;;;;;;;;2036940;29;20088;-88
2023/03/26 06:12:28;;;;;;;2.40;1.60;;;;;;;;;;2045303;29;20086;-89
2023/03/26 06:13:47;;;;;;;2.28;1.52;;;;;;;;;;2136117;27;20439;-88